Time;durP1;ratioP1;P1;durP2;ratioP2;P2;SDS_P1;SDS_P2;PMS_P1;PMS_P2;Temp;Humidity;BMP_temperature;BMP_pressure;BME280_temperature;BME280_humidity;BME280_pressure;Samples;Min_cycle;Max_cycle;Signal;HPM_P1;HPM_P2
2022/03/08 00:00:31;;;;;;;8.60;4.23;;;1.30;97.30;;;;;;5072175;28;20471;-87
2022/03/08 00:02:57;;;;;;;15.20;4.70;;;1.30;97.30;;;;;;5072479;28;20503;-87
2022/03/08 00:05:23;;;;;;;11.33;4.50;;;1.20;97.30;;;;;;5054749;28;20432;-86
2022/03/08 00:07:50;;;;;;;8.23;5.17;;;1.10;97.30;;;;;;5054545;28;20410;-87
2022/03/08 00:10:16;;;;;;;8.47;4.27;;;1.10;97.30;;;;;;5053901;28;20555;-86
2022/03/08 00:12:42;;;;;;;10.43;5.10;;;1.10;97.30;;;;;;5054472;28;20453;-86
2022/03/08 00:15:13;;;;;;;10.73;5.13;;;1.00;97.30;;;;;;5054108;28;20420;-86
2022/03/08 00:17:38;;;;;;;15.27;6.97;;;1.00;97.30;;;;;;5055001;28;20803;-86
2022/03/08 00:20:09;;;;;;;14.30;5.10;;;1.00;97.30;;;;;;5072334;28;20422;-86
2022/03/08 00:22:36;;;;;;;11.33;5.77;;;0.90;97.30;;;;;;5054186;28;20270;-86
2022/03/08 00:25:02;;;;;;;11.50;5.20;;;0.80;97.30;;;;;;5053350;28;21043;-86
2022/03/08 00:27:28;;;;;;;10.43;5.33;;;0.80;97.30;;;;;;5053787;28;20418;-88
2022/03/08 00:29:54;;;;;;;10.10;5.37;;;0.70;97.30;;;;;;5054152;28;20442;-86
2022/03/08 00:32:20;;;;;;;9.73;4.90;;;0.70;97.30;;;;;;5053984;28;20461;-87
2022/03/08 00:34:46;;;;;;;17.90;5.20;;;0.60;97.30;;;;;;5053954;28;20431;-87
2022/03/08 00:37:11;;;;;;;9.93;5.03;;;0.60;97.30;;;;;;5054067;28;20178;-87
2022/03/08 00:39:37;;;;;;;10.40;5.50;;;0.50;97.30;;;;;;5072021;28;20191;-86
2022/03/08 00:42:03;;;;;;;14.10;5.23;;;0.50;97.30;;;;;;5054059;28;20409;-87
2022/03/08 00:44:29;;;;;;;10.50;5.80;;;0.40;97.30;;;;;;5054803;28;20178;-87
2022/03/08 00:46:54;;;;;;;12.83;4.97;;;0.40;97.30;;;;;;5054086;28;20421;-86
2022/03/08 00:49:20;;;;;;;13.53;5.30;;;0.40;97.30;;;;;;5054256;28;20291;-86
2022/03/08 00:51:45;;;;;;;10.60;5.10;;;0.30;97.30;;;;;;5053748;28;20214;-86
2022/03/08 00:54:11;;;;;;;26.20;4.77;;;0.30;97.30;;;;;;5054082;28;20175;-86
2022/03/08 00:56:37;;;;;;;9.83;5.00;;;0.20;97.30;;;;;;5053995;28;20258;-87
2022/03/08 00:59:02;;;;;;;14.33;4.77;;;0.10;97.30;;;;;;5071991;28;20172;-86
2022/03/08 01:01:28;;;;;;;8.90;5.00;;;0.10;97.30;;;;;;5053598;28;20312;-86
2022/03/08 01:03:53;;;;;;;9.47;5.40;;;0.00;97.30;;;;;;5053941;28;20171;-86
2022/03/08 01:06:19;;;;;;;12.87;5.10;;;-0.10;97.30;;;;;;5053919;28;20574;-87
2022/03/08 01:08:44;;;;;;;11.20;5.07;;;-0.10;97.30;;;;;;5047334;28;20208;-88
2022/03/08 01:11:10;;;;;;;10.20;5.20;;;-0.20;97.30;;;;;;5033813;28;20278;-87
2022/03/08 01:13:35;;;;;;;11.53;5.57;;;-0.20;97.30;;;;;;5033393;28;20571;-86
2022/03/08 01:16:01;;;;;;;11.50;5.17;;;-0.30;97.30;;;;;;5033927;28;20176;-87
2022/03/08 01:18:26;;;;;;;8.93;4.07;;;-0.30;97.30;;;;;;5051516;28;20251;-87
2022/03/08 01:20:52;;;;;;;10.57;4.30;;;-0.30;97.30;;;;;;5033840;28;20745;-88
2022/03/08 01:23:18;;;;;;;12.27;5.20;;;-0.30;97.30;;;;;;5033794;28;20180;-86
2022/03/08 01:25:43;;;;;;;11.67;4.70;;;-0.30;97.30;;;;;;5034529;28;20249;-86
2022/03/08 01:28:09;;;;;;;10.10;4.60;;;-0.30;97.30;;;;;;5034037;28;20642;-87
2022/03/08 01:30:34;;;;;;;11.47;5.30;;;-0.40;97.30;;;;;;5034413;28;20552;-86
2022/03/08 01:33:00;;;;;;;7.77;3.93;;;-0.40;97.30;;;;;;5034709;28;20576;-86
2022/03/08 01:35:26;;;;;;;8.83;4.20;;;-0.50;97.30;;;;;;5034178;28;20179;-85
2022/03/08 01:37:52;;;;;;;8.30;4.03;;;-0.50;97.30;;;;;;5037031;28;20468;-86
2022/03/08 01:40:19;;;;;;;9.47;4.00;;;-0.50;97.30;;;;;;5038159;28;20438;-87
2022/03/08 01:42:48;;;;;;;6.33;3.63;;;-0.50;97.30;;;;;;5055437;28;20501;-87
2022/03/08 01:45:15;;;;;;;8.30;3.90;;;-0.50;97.30;;;;;;5055490;28;20454;-87
2022/03/08 01:47:41;;;;;;;11.47;4.20;;;-0.50;97.30;;;;;;5037512;28;20489;-87
2022/03/08 01:50:07;;;;;;;6.80;3.77;;;-0.50;97.30;;;;;;5037011;28;20956;-87
2022/03/08 01:52:33;;;;;;;8.20;3.90;;;-0.60;97.30;;;;;;5046179;28;20207;-86
2022/03/08 01:54:59;;;;;;;12.43;4.00;;;-0.60;97.30;;;;;;5054072;28;20426;-87
2022/03/08 01:57:25;;;;;;;10.80;5.23;;;-0.70;97.30;;;;;;5053787;28;20206;-88
2022/03/08 01:59:54;;;;;;;7.00;4.30;;;-0.70;97.30;;;;;;5054181;28;20322;-87
2022/03/08 02:02:20;;;;;;;8.30;4.30;;;-0.80;97.30;;;;;;5055330;28;20425;-88
2022/03/08 02:04:46;;;;;;;8.20;4.80;;;-0.90;97.30;;;;;;5053920;28;20414;-88
2022/03/08 02:07:12;;;;;;;8.83;4.30;;;-0.90;97.30;;;;;;5054376;28;20187;-88
2022/03/08 02:09:38;;;;;;;7.37;4.47;;;-1.00;97.30;;;;;;5056956;28;20433;-88
2022/03/08 02:12:05;;;;;;;9.87;4.93;;;-1.00;97.30;;;;;;5056898;28;20491;-88
2022/03/08 02:14:30;;;;;;;11.87;5.40;;;-1.00;97.30;;;;;;5056577;28;20175;-88
2022/03/08 02:16:56;;;;;;;7.37;4.10;;;-1.00;97.30;;;;;;5074925;28;20410;-87
2022/03/08 02:19:21;;;;;;;9.10;5.03;;;-1.10;97.30;;;;;;5056852;28;20684;-87
2022/03/08 02:21:49;;;;;;;9.53;4.43;;;-1.10;97.30;;;;;;5056655;28;20258;-88
2022/03/08 02:24:15;;;;;;;7.60;4.20;;;-1.10;97.30;;;;;;5056561;28;20176;-89
2022/03/08 02:26:40;;;;;;;7.87;4.40;;;-1.10;97.30;;;;;;5056952;28;20420;-88
2022/03/08 02:29:08;;;;;;;15.10;4.10;;;-1.10;97.30;;;;;;5056505;28;20553;-88
2022/03/08 02:31:34;;;;;;;9.00;4.70;;;-1.20;97.30;;;;;;5056751;28;20175;-87
2022/03/08 02:34:00;;;;;;;9.77;4.40;;;-1.20;97.30;;;;;;5056291;28;21228;-87
2022/03/08 02:36:25;;;;;;;6.60;4.37;;;-1.20;97.30;;;;;;5056138;28;20230;-88
2022/03/08 02:38:51;;;;;;;6.87;3.80;;;-1.20;97.30;;;;;;5074310;28;20199;-89
2022/03/08 02:41:16;;;;;;;9.20;3.83;;;-1.30;97.30;;;;;;5056054;28;20191;-89
2022/03/08 02:43:42;;;;;;;9.00;4.30;;;-1.30;97.30;;;;;;5056303;28;20528;-88
2022/03/08 02:46:08;;;;;;;8.33;3.67;;;-1.40;97.30;;;;;;5056249;28;20557;-88
2022/03/08 02:48:34;;;;;;;10.20;4.40;;;-1.40;97.30;;;;;;5055557;28;20417;-88
2022/03/08 02:51:00;;;;;;;9.73;4.83;;;-1.40;97.30;;;;;;5056138;28;20626;-89
2022/03/08 02:53:25;;;;;;;7.23;4.03;;;-1.50;97.30;;;;;;5056177;28;20451;-89
2022/03/08 02:55:51;;;;;;;8.70;3.70;;;-1.50;97.30;;;;;;5056283;28;20202;-87
2022/03/08 02:58:17;;;;;;;8.87;3.67;;;-1.50;97.30;;;;;;5055937;28;20171;-88
2022/03/08 03:00:42;;;;;;;9.30;4.97;;;-1.60;97.30;;;;;;5048679;28;20247;-89
2022/03/08 03:03:08;;;;;;;6.83;3.80;;;-1.60;97.30;;;;;;5036229;28;20698;-89
2022/03/08 03:05:35;;;;;;;9.77;4.23;;;-1.70;97.30;;;;;;5036003;28;20180;-88
2022/03/08 03:08:01;;;;;;;8.03;3.80;;;-1.70;97.30;;;;;;5036404;28;20445;-88
2022/03/08 03:10:26;;;;;;;6.03;4.07;;;-1.70;97.30;;;;;;5036111;28;20470;-90
2022/03/08 03:12:55;;;;;;;8.40;4.43;;;-1.80;97.30;;;;;;5053936;28;20274;-88
2022/03/08 03:15:22;;;;;;;6.80;4.20;;;-1.80;97.30;;;;;;5053480;28;20263;-89
2022/03/08 03:17:48;;;;;;;11.63;3.97;;;-1.80;97.30;;;;;;5035832;28;21001;-89
2022/03/08 03:20:16;;;;;;;9.40;4.20;;;-1.90;97.30;;;;;;5053350;28;20928;-89
2022/03/08 03:22:42;;;;;;;11.20;3.90;;;-1.90;97.30;;;;;;5036007;28;20797;-89
2022/03/08 03:25:09;;;;;;;8.43;4.30;;;-1.90;97.30;;;;;;5035605;28;20433;-89
2022/03/08 03:27:35;;;;;;;6.03;3.77;;;-1.90;97.30;;;;;;5035490;28;20517;-88
2022/03/08 03:30:02;;;;;;;8.53;3.60;;;-1.90;97.30;;;;;;5035825;28;20488;-90
2022/03/08 03:32:27;;;;;;;5.10;3.60;;;-1.90;97.30;;;;;;5053315;28;20452;-89
2022/03/08 03:34:53;;;;;;;8.03;4.53;;;-1.90;97.30;;;;;;5035345;28;20426;-89
2022/03/08 03:37:18;;;;;;;8.20;4.83;;;-1.90;97.30;;;;;;5035158;28;20716;-89
2022/03/08 03:39:46;;;;;;;8.53;4.73;;;-1.90;97.30;;;;;;5053248;28;20645;-88
2022/03/08 03:42:11;;;;;;;7.90;4.27;;;-1.90;97.30;;;;;;5028053;28;20176;-89
2022/03/08 03:44:37;;;;;;;12.23;5.83;;;-1.90;97.30;;;;;;5035332;28;20963;-89
2022/03/08 03:47:03;;;;;;;9.60;4.80;;;-1.90;97.30;;;;;;5035047;28;20184;-88
2022/03/08 03:49:28;;;;;;;6.97;3.67;;;-1.90;97.30;;;;;;5034469;28;20199;-89
2022/03/08 03:51:54;;;;;;;13.17;4.90;;;-1.90;97.30;;;;;;5034837;28;20553;-88
2022/03/08 03:54:20;;;;;;;8.20;3.87;;;-1.90;97.30;;;;;;5034997;28;20175;-87
2022/03/08 03:56:46;;;;;;;7.93;3.90;;;-2.00;97.30;;;;;;5035161;28;20250;-90
2022/03/08 03:59:11;;;;;;;7.10;4.13;;;-2.00;97.30;;;;;;5034910;28;20418;-88
2022/03/08 04:01:37;;;;;;;8.67;4.20;;;-2.00;97.30;;;;;;5035056;28;20175;-88
2022/03/08 04:04:03;;;;;;;7.50;4.00;;;-2.00;97.30;;;;;;5035006;28;20179;-88
2022/03/08 04:06:28;;;;;;;10.27;3.90;;;-2.00;97.30;;;;;;5034944;28;20182;-90
2022/03/08 04:08:54;;;;;;;7.40;4.03;;;-2.00;97.30;;;;;;5052728;28;20179;-89
2022/03/08 04:11:19;;;;;;;6.83;3.63;;;-2.10;97.30;;;;;;5035100;28;20253;-88
2022/03/08 04:13:45;;;;;;;7.40;4.20;;;-2.10;97.30;;;;;;5035008;28;20215;-89
2022/03/08 04:16:11;;;;;;;11.33;4.10;;;-2.10;97.30;;;;;;5034685;28;20167;-89
2022/03/08 04:18:37;;;;;;;7.33;4.03;;;-2.20;97.30;;;;;;5034816;28;20761;-88
2022/03/08 04:21:03;;;;;;;6.77;3.70;;;-2.20;97.30;;;;;;5034616;28;20435;-88
2022/03/08 04:23:29;;;;;;;8.50;3.80;;;-2.30;97.30;;;;;;5034823;28;20433;-89
2022/03/08 04:25:54;;;;;;;9.10;4.83;;;-2.30;97.30;;;;;;5034813;28;20459;-88
2022/03/08 04:28:20;;;;;;;5.53;3.83;;;-2.30;97.30;;;;;;5035125;28;20184;-88
2022/03/08 04:30:45;;;;;;;9.47;4.67;;;-2.40;97.30;;;;;;5034436;28;20203;-89
2022/03/08 04:33:11;;;;;;;7.20;4.20;;;-2.40;97.30;;;;;;5034058;28;20227;-89
2022/03/08 04:35:36;;;;;;;7.83;4.00;;;-2.40;97.30;;;;;;5033894;28;20229;-89
2022/03/08 04:38:02;;;;;;;5.60;3.17;;;-2.40;97.30;;;;;;5034168;28;20209;-89
2022/03/08 04:40:28;;;;;;;6.90;3.70;;;-2.40;97.30;;;;;;5033821;28;20207;-90
2022/03/08 04:42:53;;;;;;;4.23;3.10;;;-2.40;97.30;;;;;;5034178;28;20183;-89
2022/03/08 04:45:19;;;;;;;8.70;3.50;;;-2.40;97.30;;;;;;5034223;28;20296;-89
2022/03/08 04:47:45;;;;;;;5.03;3.53;;;-2.40;97.30;;;;;;5052327;28;20172;-89
2022/03/08 04:50:14;;;;;;;8.63;5.10;;;-2.50;97.30;;;;;;5034089;28;20195;-89
2022/03/08 04:52:41;;;;;;;7.97;3.90;;;-2.50;97.30;;;;;;5034527;28;20203;-90
2022/03/08 04:55:07;;;;;;;6.00;3.50;;;-2.50;97.30;;;;;;5034763;28;20426;-90
2022/03/08 04:57:33;;;;;;;8.60;4.27;;;-2.60;97.30;;;;;;5035090;28;20415;-89
2022/03/08 04:59:58;;;;;;;10.23;4.87;;;-2.60;97.30;;;;;;5035111;28;20488;-90
2022/03/08 05:02:24;;;;;;;11.90;4.87;;;-2.60;97.30;;;;;;5035408;28;20202;-89
2022/03/08 05:04:49;;;;;;;11.50;4.10;;;-2.70;97.30;;;;;;5034702;28;20280;-90
2022/03/08 05:07:15;;;;;;;6.40;3.60;;;-2.70;97.30;;;;;;5035288;28;20188;-89
2022/03/08 05:09:40;;;;;;;8.83;3.63;;;-2.70;97.30;;;;;;5035142;28;20275;-90
2022/03/08 05:12:08;;;;;;;6.37;3.60;;;-2.70;97.30;;;;;;5037435;28;20676;-90
2022/03/08 05:14:34;;;;;;;11.60;4.13;;;-2.70;97.30;;;;;;5057153;28;20190;-90
2022/03/08 05:16:59;;;;;;;8.20;3.87;;;-2.70;97.30;;;;;;5039526;28;20908;-89
2022/03/08 05:19:25;;;;;;;13.50;3.70;;;-2.70;97.30;;;;;;5038801;28;20434;-89
2022/03/08 05:21:51;;;;;;;7.07;3.63;;;-2.60;97.30;;;;;;5038926;28;20180;-90
2022/03/08 05:24:16;;;;;;;6.30;3.90;;;-2.60;97.30;;;;;;5039059;28;20240;-90
2022/03/08 05:26:42;;;;;;;8.30;3.60;;;-2.60;97.30;;;;;;5038184;28;20167;-89
2022/03/08 05:29:08;;;;;;;6.57;4.20;;;-2.60;97.30;;;;;;5038958;28;20187;-90
2022/03/08 05:31:34;;;;;;;7.30;4.30;;;-2.50;97.30;;;;;;5038626;28;20266;-90
2022/03/08 05:33:59;;;;;;;7.53;4.00;;;-2.60;97.30;;;;;;5057224;28;20203;-90
2022/03/08 05:36:26;;;;;;;6.50;4.20;;;-2.60;97.30;;;;;;5038832;28;20468;-90
2022/03/08 05:38:51;;;;;;;7.23;3.53;;;-2.60;97.30;;;;;;5039002;28;20180;-90
2022/03/08 05:41:17;;;;;;;6.13;3.80;;;-2.70;97.30;;;;;;5038334;28;20491;-90
2022/03/08 05:43:42;;;;;;;5.63;3.63;;;-2.70;97.30;;;;;;5056472;28;20191;-90
2022/03/08 05:46:08;;;;;;;8.83;3.93;;;-2.70;97.30;;;;;;5038431;28;20175;-90
2022/03/08 05:48:33;;;;;;;12.17;4.70;;;-2.70;97.30;;;;;;5039444;28;20639;-90
2022/03/08 05:50:59;;;;;;;7.30;4.03;;;-2.70;97.30;;;;;;5038901;28;20565;-90
2022/03/08 05:53:24;;;;;;;7.27;4.27;;;-2.70;97.30;;;;;;5056489;28;20609;-90
2022/03/08 05:55:50;;;;;;;6.17;3.60;;;-2.70;97.30;;;;;;5038373;28;20184;-90
2022/03/08 05:58:15;;;;;;;14.50;4.53;;;-2.70;97.30;;;;;;5038616;28;20682;-91
2022/03/08 06:00:48;;;;;;;13.20;4.40;;;-2.70;97.30;;;;;;5038728;28;20259;-90
2022/03/08 06:03:14;;;;;;;18.37;4.30;;;-2.70;97.30;;;;;;5038817;28;20665;-90
2022/03/08 06:05:39;;;;;;;9.63;4.20;;;-2.70;97.30;;;;;;5038815;28;20508;-91
2022/03/08 06:08:05;;;;;;;7.03;4.47;;;-2.70;97.30;;;;;;5039061;28;20180;-89
2022/03/08 06:10:32;;;;;;;8.10;4.57;;;-2.70;97.30;;;;;;5037444;28;20242;-90
2022/03/08 06:12:58;;;;;;;12.70;4.67;;;-2.70;97.30;;;;;;5037601;28;20458;-90
2022/03/08 06:15:23;;;;;;;8.80;4.63;;;-2.70;97.30;;;;;;5037476;28;20464;-90
2022/03/08 06:17:49;;;;;;;8.97;4.40;;;-2.60;97.30;;;;;;5037580;28;20221;-90
2022/03/08 06:20:14;;;;;;;9.50;4.30;;;-2.60;97.30;;;;;;5037441;28;20547;-89
2022/03/08 06:22:40;;;;;;;10.23;4.50;;;-2.60;97.30;;;;;;5037127;28;20341;-89
2022/03/08 06:25:07;;;;;;;8.33;4.70;;;-2.60;97.30;;;;;;5037187;28;20191;-89
2022/03/08 06:27:32;;;;;;;13.73;4.13;;;-2.50;97.30;;;;;;5036799;28;20219;-89
2022/03/08 06:29:58;;;;;;;9.17;4.33;;;-2.50;97.30;;;;;;5034661;28;20443;-90
2022/03/08 06:32:23;;;;;;;8.33;4.57;;;-2.40;97.30;;;;;;5046831;28;20236;-90
2022/03/08 06:34:52;;;;;;;10.47;4.40;;;-2.40;97.30;;;;;;5044517;28;20659;-90
2022/03/08 06:37:18;;;;;;;6.60;3.43;;;-2.30;97.30;;;;;;5023738;28;20864;-89
2022/03/08 06:39:47;;;;;;;5.67;3.97;;;-2.20;97.30;;;;;;5044336;28;20440;-91
2022/03/08 06:42:13;;;;;;;6.17;3.90;;;-2.20;97.30;;;;;;5049277;28;20422;-90
2022/03/08 06:44:41;;;;;;;10.70;4.63;;;-2.10;97.30;;;;;;5041854;28;20502;-91
2022/03/08 06:47:08;;;;;;;7.87;4.20;;;-2.10;97.30;;;;;;5040547;28;20419;-91
2022/03/08 06:49:37;;;;;;;12.03;5.33;;;-2.00;97.30;;;;;;5031793;28;20948;-90
2022/03/08 06:52:03;;;;;;;12.37;4.47;;;-1.90;97.30;;;;;;5045449;28;20538;-91
2022/03/08 06:54:28;;;;;;;17.00;5.83;;;-1.80;97.30;;;;;;5056622;28;20504;-91
2022/03/08 06:56:54;;;;;;;19.30;6.20;;;-1.70;97.30;;;;;;5056545;28;20486;-91
2022/03/08 06:59:19;;;;;;;20.70;7.20;;;-1.60;97.30;;;;;;5056200;28;20179;-89
2022/03/08 07:01:45;;;;;;;19.00;6.97;;;-1.50;97.30;;;;;;5045894;28;20214;-90
2022/03/08 07:04:10;;;;;;;26.57;6.63;;;-1.40;97.30;;;;;;5030658;28;20198;-91
2022/03/08 07:06:36;;;;;;;22.53;7.60;;;-1.30;97.30;;;;;;5036195;28;20187;-91
2022/03/08 07:09:03;;;;;;;18.80;6.97;;;-1.10;97.30;;;;;;5036721;28;20172;-91
2022/03/08 07:11:28;;;;;;;17.70;7.87;;;-1.00;97.30;;;;;;5035810;28;20418;-92
2022/03/08 07:13:54;;;;;;;21.63;7.00;;;-0.90;97.30;;;;;;5036305;28;20489;-91
2022/03/08 07:16:19;;;;;;;18.57;7.57;;;-0.70;97.30;;;;;;5035594;28;20662;-91
2022/03/08 07:18:45;;;;;;;13.73;6.27;;;-0.60;97.30;;;;;;5035877;28;20176;-90
2022/03/08 07:21:10;;;;;;;12.70;5.47;;;-0.50;97.30;;;;;;5035644;28;20199;-91
2022/03/08 07:23:36;;;;;;;14.73;5.03;;;-0.40;97.30;;;;;;5035565;28;20181;-91
2022/03/08 07:26:01;;;;;;;10.17;4.77;;;-0.30;97.30;;;;;;5035604;28;20259;-91
2022/03/08 07:28:27;;;;;;;17.17;6.27;;;-0.20;97.30;;;;;;5042888;28;20250;-91
2022/03/08 07:30:52;;;;;;;13.63;5.33;;;0.00;97.30;;;;;;5056047;28;20735;-90
2022/03/08 07:33:18;;;;;;;8.93;5.00;;;0.00;97.30;;;;;;5062392;28;20255;-90
2022/03/08 07:35:43;;;;;;;9.37;4.60;;;0.20;97.30;;;;;;5031936;28;20599;-90
2022/03/08 07:38:09;;;;;;;8.60;5.17;;;0.30;97.30;;;;;;5034645;28;20168;-90
2022/03/08 07:40:35;;;;;;;12.20;5.33;;;0.40;97.30;;;;;;5052916;28;20198;-90
2022/03/08 07:43:02;;;;;;;13.93;6.23;;;0.50;97.30;;;;;;5052762;28;20182;-89
2022/03/08 07:45:32;;;;;;;41.47;4.83;;;0.60;97.30;;;;;;5035411;28;20275;-89
2022/03/08 07:47:58;;;;;;;10.80;4.50;;;0.70;97.30;;;;;;5035079;28;20414;-89
2022/03/08 07:50:25;;;;;;;11.37;4.80;;;0.90;97.30;;;;;;5034876;28;20445;-89
2022/03/08 07:52:51;;;;;;;9.40;4.90;;;1.00;97.30;;;;;;5049687;28;20282;-89
2022/03/08 07:55:17;;;;;;;9.00;4.60;;;1.10;97.30;;;;;;5054757;28;20540;-89
2022/03/08 07:57:42;;;;;;;15.30;6.00;;;1.20;97.30;;;;;;5040541;28;20730;-88
2022/03/08 08:00:09;;;;;;;10.70;5.00;;;1.30;97.30;;;;;;5039123;28;20568;-89
2022/03/08 08:02:35;;;;;;;12.90;5.70;;;1.40;97.30;;;;;;5046377;28;20190;-89
2022/03/08 08:05:00;;;;;;;12.60;5.23;;;1.50;97.30;;;;;;5049334;28;20411;-89
2022/03/08 08:07:26;;;;;;;17.33;5.70;;;1.70;97.30;;;;;;5031604;28;20202;-88
2022/03/08 08:09:52;;;;;;;9.77;5.03;;;1.80;97.30;;;;;;5014514;28;20262;-88
2022/03/08 08:12:17;;;;;;;13.17;5.40;;;2.00;97.30;;;;;;5013894;28;20283;-88
2022/03/08 08:14:43;;;;;;;10.97;5.17;;;2.10;97.30;;;;;;5025927;28;20180;-89
2022/03/08 08:17:09;;;;;;;7.77;5.10;;;2.20;97.30;;;;;;5047352;28;20179;-89
2022/03/08 08:19:34;;;;;;;9.00;4.70;;;2.40;97.30;;;;;;5054202;28;20448;-88
2022/03/08 08:22:00;;;;;;;11.70;4.53;;;2.60;97.30;;;;;;5054327;28;20190;-88
2022/03/08 08:24:26;;;;;;;10.13;4.10;;;2.70;97.30;;;;;;5054652;28;20209;-88
2022/03/08 08:26:51;;;;;;;13.53;5.20;;;2.80;97.30;;;;;;5054588;28;20451;-88
2022/03/08 08:29:17;;;;;;;11.90;4.70;;;3.00;97.30;;;;;;5054592;28;20179;-88
2022/03/08 08:31:42;;;;;;;9.60;4.80;;;3.10;97.30;;;;;;5054674;28;20179;-88
2022/03/08 08:34:08;;;;;;;8.60;4.73;;;3.30;97.30;;;;;;5054354;28;20297;-89
2022/03/08 08:36:34;;;;;;;8.27;4.37;;;3.40;97.30;;;;;;5054631;28;20175;-88
2022/03/08 08:38:59;;;;;;;8.50;4.03;;;3.50;97.30;;;;;;5055042;28;20179;-88
2022/03/08 08:41:25;;;;;;;9.37;4.47;;;3.60;97.30;;;;;;5053869;28;20209;-89
2022/03/08 08:43:51;;;;;;;9.20;4.57;;;3.70;97.30;;;;;;5054013;28;20274;-89
2022/03/08 08:46:16;;;;;;;8.13;4.10;;;3.80;97.30;;;;;;5053144;28;20179;-89
2022/03/08 08:48:42;;;;;;;10.27;5.43;;;4.00;97.30;;;;;;5037680;28;20203;-88
2022/03/08 08:51:07;;;;;;;9.37;4.27;;;4.10;97.30;;;;;;5056355;28;20198;-89
2022/03/08 08:53:33;;;;;;;9.73;4.43;;;4.30;97.30;;;;;;5036503;28;20277;-89
2022/03/08 08:55:58;;;;;;;8.47;5.20;;;4.40;97.30;;;;;;5056890;28;20163;-89
2022/03/08 08:58:24;;;;;;;9.10;4.40;;;4.50;97.30;;;;;;5053842;28;20266;-89
2022/03/08 09:00:49;;;;;;;7.97;4.67;;;4.60;97.30;;;;;;5053771;28;20238;-89
2022/03/08 09:03:16;;;;;;;7.53;4.07;;;4.60;97.30;;;;;;5053754;28;20710;-89
2022/03/08 09:05:45;;;;;;;7.53;4.27;;;4.70;96.80;;;;;;5053602;28;20182;-89
2022/03/08 09:08:12;;;;;;;10.93;4.47;;;4.80;96.90;;;;;;5043022;28;20422;-89
2022/03/08 09:10:38;;;;;;;10.17;4.50;;;4.90;97.30;;;;;;5033478;28;20446;-89
2022/03/08 09:13:05;;;;;;;8.03;4.20;;;5.00;96.70;;;;;;5051314;28;20533;-88
2022/03/08 09:15:31;;;;;;;12.07;4.70;;;5.20;96.50;;;;;;5034444;28;20176;-89
2022/03/08 09:17:57;;;;;;;12.50;4.70;;;5.30;95.90;;;;;;5041939;28;20501;-89
2022/03/08 09:20:25;;;;;;;10.03;3.87;;;5.40;95.60;;;;;;5037705;28;20507;-89
2022/03/08 09:22:54;;;;;;;10.40;4.00;;;5.50;95.30;;;;;;5042584;28;20183;-88
2022/03/08 09:25:19;;;;;;;11.60;3.90;;;5.60;95.30;;;;;;5033804;28;20418;-89
2022/03/08 09:27:46;;;;;;;10.13;3.40;;;5.70;94.80;;;;;;5033690;28;20420;-89
2022/03/08 09:30:11;;;;;;;12.00;4.67;;;5.80;94.60;;;;;;5033767;28;20204;-90
2022/03/08 09:32:37;;;;;;;7.87;4.40;;;5.80;94.10;;;;;;5051091;28;20454;-89
2022/03/08 09:35:04;;;;;;;8.47;3.27;;;5.90;94.10;;;;;;5033928;28;20262;-89
2022/03/08 09:37:29;;;;;;;5.83;3.40;;;6.00;93.40;;;;;;5033974;28;20266;-90
2022/03/08 09:39:55;;;;;;;7.73;3.03;;;6.10;93.30;;;;;;5051382;28;20509;-89
2022/03/08 09:42:21;;;;;;;7.43;3.60;;;6.20;92.80;;;;;;5033695;28;20176;-90
2022/03/08 09:44:48;;;;;;;7.37;3.70;;;6.30;92.30;;;;;;5033513;28;20252;-90
2022/03/08 09:47:15;;;;;;;8.40;3.57;;;6.40;92.10;;;;;;5033087;28;20426;-89
2022/03/08 09:49:40;;;;;;;9.13;3.27;;;6.40;92.10;;;;;;5033104;28;20442;-90
2022/03/08 09:52:06;;;;;;;5.70;3.37;;;6.40;91.50;;;;;;5051463;28;20422;-90
2022/03/08 09:54:31;;;;;;;5.80;3.60;;;6.50;91.80;;;;;;5054371;28;20178;-89
2022/03/08 09:56:57;;;;;;;9.97;4.17;;;6.60;92.00;;;;;;5053830;28;20180;-89
2022/03/08 09:59:29;;;;;;;7.00;3.00;;;6.70;90.70;;;;;;5056493;28;20203;-90
2022/03/08 10:01:55;;;;;;;5.60;2.80;;;6.80;90.20;;;;;;5057045;28;20179;-89
2022/03/08 10:04:21;;;;;;;9.90;4.17;;;6.80;90.40;;;;;;5056812;28;20429;-90
2022/03/08 10:06:51;;;;;;;5.60;3.03;;;6.90;90.10;;;;;;5022087;28;20435;-89
2022/03/08 10:09:19;;;;;;;5.97;2.90;;;6.90;89.90;;;;;;5049307;28;20930;-89
2022/03/08 10:11:44;;;;;;;5.80;2.83;;;6.90;89.90;;;;;;5043521;28;20495;-90
2022/03/08 10:14:26;;;;;;;6.27;2.93;;;7.00;89.60;;;;;;5056041;28;20533;-90
2022/03/08 10:16:53;;;;;;;5.83;2.67;;;7.10;89.10;;;;;;5037744;28;20179;-90
2022/03/08 10:19:19;;;;;;;8.43;3.03;;;7.10;88.40;;;;;;5036666;28;20413;-89
2022/03/08 10:21:47;;;;;;;20.60;7.63;;;7.10;89.00;;;;;;5035902;28;20418;-89
2022/03/08 10:24:17;;;;;;;9.70;4.47;;;7.20;89.10;;;;;;5036994;28;20944;-89
2022/03/08 10:27:01;;;;;;;8.03;4.70;;;7.30;88.30;;;;;;5037956;28;20472;-89
2022/03/08 10:29:35;;;;;;;11.37;4.37;;;7.40;88.40;;;;;;5037011;28;20788;-89
2022/03/08 10:32:19;;;;;;;6.80;4.63;;;7.60;89.00;;;;;;5036765;28;20421;-89
2022/03/08 10:34:47;;;;;;;20.03;7.20;;;7.70;88.10;;;;;;5036304;28;20415;-90
2022/03/08 10:37:20;;;;;;;8.80;3.53;;;7.80;87.30;;;;;;5037603;28;20457;-89
2022/03/08 10:40:00;;;;;;;16.80;9.50;;;7.80;87.30;;;;;;5036489;28;20963;-90
2022/03/08 10:42:29;;;;;;;20.17;9.63;;;7.90;86.70;;;;;;5036296;28;20431;-89
2022/03/08 10:45:11;;;;;;;13.43;6.87;;;7.90;87.50;;;;;;5036033;28;20414;-89
2022/03/08 10:47:42;;;;;;;10.57;3.33;;;8.00;85.70;;;;;;5050967;28;20429;-89
2022/03/08 10:50:11;;;;;;;6.93;3.33;;;8.10;86.30;;;;;;5037080;28;20588;-89
2022/03/08 10:52:39;;;;;;;18.23;3.10;;;8.20;86.10;;;;;;5036170;28;20835;-89
2022/03/08 10:55:09;;;;;;;4.90;3.00;;;8.40;85.80;;;;;;5037197;28;20403;-90
2022/03/08 10:57:35;;;;;;;6.63;2.70;;;8.50;84.80;;;;;;5035969;28;20501;-89
2022/03/08 11:00:09;;;;;;;4.80;2.63;;;8.60;84.70;;;;;;5036798;28;20607;-89
2022/03/08 11:02:35;;;;;;;3.47;2.50;;;8.70;82.70;;;;;;5048268;28;20430;-89
2022/03/08 11:05:08;;;;;;;4.40;1.83;;;8.90;81.50;;;;;;5055414;28;20475;-89
2022/03/08 11:07:35;;;;;;;2.50;2.20;;;9.00;80.20;;;;;;5056288;28;20176;-90
2022/03/08 11:10:03;;;;;;;15.77;5.10;;;9.10;80.50;;;;;;5052668;28;20885;-90
2022/03/08 11:12:29;;;;;;;10.80;3.80;;;9.20;80.40;;;;;;5052980;28;20453;-89
2022/03/08 11:14:54;;;;;;;6.37;2.40;;;9.30;81.60;;;;;;5055904;28;20420;-89
2022/03/08 11:17:23;;;;;;;3.10;1.70;;;9.60;80.50;;;;;;5055901;28;20186;-90
2022/03/08 11:19:49;;;;;;;9.83;2.37;;;9.60;78.40;;;;;;5055764;28;20202;-89
2022/03/08 11:22:17;;;;;;;2.77;1.90;;;9.70;79.30;;;;;;5055793;28;20575;-89
2022/03/08 11:24:44;;;;;;;2.00;1.60;;;9.70;76.50;;;;;;5073662;28;20923;-90
2022/03/08 11:27:12;;;;;;;4.67;2.67;;;9.70;76.20;;;;;;5038775;28;20433;-89
2022/03/08 11:29:38;;;;;;;6.23;3.00;;;9.80;79.10;;;;;;5041643;28;20936;-89
2022/03/08 11:32:06;;;;;;;18.10;7.50;;;10.00;80.10;;;;;;5055901;28;20446;-90
2022/03/08 11:34:41;;;;;;;13.40;6.33;;;10.00;79.40;;;;;;5063719;28;20912;-89
2022/03/08 11:37:19;;;;;;;9.13;4.80;;;9.90;78.80;;;;;;5055610;28;20417;-90
2022/03/08 11:39:44;;;;;;;16.73;7.70;;;9.90;78.90;;;;;;5055269;28;20444;-88
2022/03/08 11:42:26;;;;;;;8.50;4.50;;;10.00;78.20;;;;;;5073465;28;20406;-89
2022/03/08 11:44:57;;;;;;;2.87;2.20;;;9.90;79.10;;;;;;5072986;28;20187;-89
2022/03/08 11:47:23;;;;;;;8.47;4.33;;;9.90;76.60;;;;;;5055922;28;20470;-90
2022/03/08 11:49:56;;;;;;;10.30;4.87;;;10.10;77.50;;;;;;5051179;28;20442;-90
2022/03/08 11:52:27;;;;;;;9.53;4.43;;;10.20;77.80;;;;;;5035492;28;20294;-90
2022/03/08 11:55:02;;;;;;;11.10;4.10;;;10.30;77.80;;;;;;5035867;28;20461;-89
2022/03/08 11:57:54;;;;;;;8.13;4.30;;;10.40;78.00;;;;;;5027597;28;20934;-90
2022/03/08 12:00:36;;;;;;;3.53;2.20;;;10.40;77.10;;;;;;5013804;28;20471;-88
2022/03/08 12:03:08;;;;;;;15.90;6.70;;;10.60;76.10;;;;;;5015666;28;20411;-89
2022/03/08 12:05:54;;;;;;;4.87;2.73;;;10.80;76.30;;;;;;5032560;28;21176;-89
2022/03/08 12:08:31;;;;;;;10.87;3.40;;;10.90;75.60;;;;;;5051663;28;20421;-88
2022/03/08 12:11:43;;;;;;;6.90;4.53;;;10.90;75.10;;;;;;5039459;28;20453;-90
2022/03/08 12:14:12;;;;;;;5.73;3.47;;;10.90;74.40;;;;;;5036596;28;21010;-88
2022/03/08 12:16:40;;;;;;;5.10;2.27;;;10.90;74.60;;;;;;5055062;28;20444;-89
2022/03/08 12:19:07;;;;;;;3.93;2.40;;;11.10;73.80;;;;;;5055727;28;20422;-89
2022/03/08 12:21:39;;;;;;;4.07;2.20;;;11.20;73.80;;;;;;5055578;28;20418;-89
2022/03/08 12:24:18;;;;;;;4.20;2.67;;;11.10;73.20;;;;;;5049857;28;20421;-89
2022/03/08 12:27:00;;;;;;;6.97;3.70;;;11.20;73.10;;;;;;5053468;28;20405;-88
2022/03/08 12:29:36;;;;;;;4.80;2.90;;;11.20;73.50;;;;;;5048966;28;20481;-89
2022/03/08 12:32:03;;;;;;;5.67;3.13;;;11.20;72.80;;;;;;5053963;28;20479;-90
2022/03/08 12:34:42;;;;;;;3.30;2.30;;;11.20;71.90;;;;;;5053814;28;20496;-90
2022/03/08 12:37:14;;;;;;;3.13;1.90;;;11.30;72.40;;;;;;5035929;28;20425;-89
2022/03/08 12:40:12;;;;;;;3.13;2.47;;;11.40;72.80;;;;;;5033862;28;20430;-89
2022/03/08 12:42:42;;;;;;;2.43;2.27;;;11.70;71.80;;;;;;5033724;28;21087;-90
2022/03/08 12:45:11;;;;;;;2.37;1.53;;;11.80;71.00;;;;;;5041128;28;20473;-89
2022/03/08 12:47:42;;;;;;;2.17;1.90;;;11.90;70.60;;;;;;5040426;28;20433;-89